createdAt,value
2018-07-22T00:00:01.340Z,10.6
2018-07-22T00:05:01.222Z,10.9
2018-07-22T00:10:01.352Z,10.5
2018-07-22T00:15:01.251Z,10.9
2018-07-22T00:20:01.294Z,11.2
2018-07-22T00:30:01.292Z,10.9
2018-07-22T00:35:01.209Z,11.0
2018-07-22T00:40:01.359Z,11.0
2018-07-22T00:45:01.297Z,11.0
2018-07-22T00:50:01.302Z,11.1
2018-07-22T01:00:01.598Z,11.1
2018-07-22T01:05:01.243Z,10.8
2018-07-22T01:10:01.367Z,11.1
2018-07-22T01:15:01.231Z,10.6
2018-07-22T01:20:01.299Z,10.4
2018-07-22T01:25:01.240Z,10.6
2018-07-22T01:30:01.232Z,10.3
2018-07-22T01:35:01.270Z,10.1
2018-07-22T01:40:01.396Z,10.3
2018-07-22T01:45:01.276Z,10.7
2018-07-22T01:50:06.375Z,10.6
2018-07-22T01:55:01.263Z,10.7
2018-07-22T02:00:01.305Z,10.6
2018-07-22T02:05:01.199Z,11.0
2018-07-22T02:10:01.299Z,11.4
2018-07-22T02:15:01.262Z,11.5
2018-07-22T02:20:01.370Z,11.8
2018-07-22T02:25:01.227Z,12.0
2018-07-22T02:30:01.374Z,11.6
2018-07-22T02:35:01.238Z,11.0
2018-07-22T02:40:01.296Z,11.4
2018-07-22T02:45:01.270Z,11.7
2018-07-22T02:50:01.301Z,11.1
2018-07-22T02:55:01.241Z,11.3
2018-07-22T03:00:01.372Z,11.5
2018-07-22T03:05:01.221Z,11.5
2018-07-22T03:10:01.300Z,11.3
2018-07-22T03:15:01.232Z,11.3
2018-07-22T03:20:01.299Z,11.5
2018-07-22T03:25:01.240Z,11.4
2018-07-22T03:30:01.366Z,11.5
2018-07-22T03:35:01.177Z,11.1
2018-07-22T03:40:01.302Z,11.3
2018-07-22T03:45:01.242Z,11.0
2018-07-22T03:50:01.306Z,10.9
2018-07-22T03:55:01.232Z,10.8
2018-07-22T04:00:01.295Z,11.0
2018-07-22T04:05:01.235Z,11.4
2018-07-22T04:10:01.378Z,11.6
2018-07-22T04:15:01.236Z,11.4
2018-07-22T04:20:01.317Z,11.4
2018-07-22T04:25:01.254Z,11.8
2018-07-22T04:30:01.310Z,11.4
2018-07-22T04:40:01.371Z,11.8
2018-07-22T04:45:01.234Z,11.7
2018-07-22T04:50:01.364Z,11.2
2018-07-22T04:55:01.237Z,10.8
2018-07-22T05:00:01.373Z,10.7
2018-07-22T05:05:01.212Z,10.7
2018-07-22T05:15:01.314Z,11.3
2018-07-22T05:21:01.364Z,11.9
2018-07-22T05:26:01.236Z,13.2
2018-07-22T05:31:01.314Z,14.3
2018-07-22T05:36:01.278Z,14.9
2018-07-22T05:46:01.336Z,15.0
2018-07-22T05:51:01.307Z,14.1
2018-07-22T05:57:01.256Z,13.6
2018-07-22T06:02:01.362Z,13.5
2018-07-22T06:07:01.235Z,13.0
2018-07-22T06:12:01.656Z,12.8
2018-07-22T06:17:01.239Z,13.0
2018-07-22T06:22:01.305Z,12.9
2018-07-22T06:27:01.232Z,12.8
2018-07-22T06:32:01.297Z,12.8
2018-07-22T06:37:01.283Z,12.8
2018-07-22T06:42:01.385Z,12.4
2018-07-22T06:47:01.247Z,12.3
2018-07-22T06:52:01.314Z,12.3
2018-07-22T06:57:01.250Z,12.2
2018-07-22T07:07:01.335Z,12.8
2018-07-22T07:12:01.368Z,12.7
2018-07-22T07:17:01.232Z,12.9
2018-07-22T07:22:01.371Z,13.7
2018-07-22T07:27:01.212Z,13.9
2018-07-22T07:32:01.305Z,14.1
2018-07-22T07:37:01.246Z,14.3
2018-07-22T07:42:01.315Z,14.0
2018-07-22T07:47:01.214Z,13.3
2018-07-22T07:52:01.506Z,13.2
2018-07-22T07:57:01.312Z,12.9
2018-07-22T08:02:01.321Z,12.6
2018-07-22T08:07:01.298Z,12.4
2018-07-22T08:12:01.269Z,12.3
2018-07-22T08:17:01.243Z,11.9
2018-07-22T08:22:01.482Z,11.8
2018-07-22T08:27:01.373Z,12.2
2018-07-22T08:32:01.309Z,12.4
2018-07-22T08:37:01.246Z,12.5
2018-07-22T08:42:01.340Z,12.2
2018-07-22T08:47:01.256Z,12.0
2018-07-22T08:52:01.278Z,11.4
2018-07-22T08:57:06.226Z,11.2
2018-07-22T09:03:01.202Z,11.0
2018-07-22T09:13:01.371Z,11.5
2018-07-22T09:18:01.362Z,11.7
2018-07-22T09:23:01.308Z,11.9
2018-07-22T09:28:01.244Z,12.1
2018-07-22T09:33:01.377Z,12.8
2018-07-22T09:38:01.237Z,13.1
2018-07-22T09:43:01.365Z,12.9
2018-07-22T09:48:01.280Z,13.2
2018-07-22T09:53:01.237Z,12.9
2018-07-22T09:58:01.242Z,12.2
2018-07-22T10:03:01.310Z,12.3
2018-07-22T10:13:01.377Z,12.3
2018-07-22T10:18:01.226Z,12.2
2018-07-22T10:23:01.247Z,12.7
2018-07-22T10:29:01.305Z,11.9
2018-07-22T10:34:06.241Z,12.1
2018-07-22T10:44:01.304Z,11.9
2018-07-22T10:49:01.306Z,12.1
2018-07-22T10:54:01.213Z,12.4
2018-07-22T10:59:01.308Z,12.4
2018-07-22T11:04:01.247Z,12.2
2018-07-22T11:09:01.375Z,12.6
2018-07-22T11:14:01.244Z,12.0
2018-07-22T11:29:01.588Z,11.9
2018-07-22T11:34:01.212Z,11.9
2018-07-22T11:39:01.306Z,12.1
2018-07-22T11:44:01.520Z,12.0
2018-07-22T11:59:01.435Z,12.0
2018-07-22T12:04:01.236Z,12.1
2018-07-22T12:09:01.299Z,12.0
2018-07-22T12:14:01.234Z,11.8
2018-07-22T12:19:01.304Z,11.6
2018-07-22T12:24:01.444Z,11.3
2018-07-22T12:29:01.428Z,11.0
2018-07-22T12:34:01.216Z,10.9
2018-07-22T12:39:01.317Z,11.1
2018-07-22T12:44:01.259Z,11.0
2018-07-22T12:50:01.320Z,11.2
2018-07-22T13:00:01.319Z,10.8
2018-07-22T13:05:01.241Z,10.6
2018-07-22T13:10:01.369Z,10.9
2018-07-22T13:15:01.214Z,10.8
2018-07-22T13:25:01.253Z,11.2
2018-07-22T13:30:01.323Z,10.8
2018-07-22T13:35:01.206Z,10.6
2018-07-22T13:40:01.262Z,10.9
2018-07-22T13:45:01.218Z,10.9
2018-07-22T13:50:01.352Z,10.8
2018-07-22T14:00:06.318Z,10.6
2018-07-22T14:05:01.248Z,10.0
2018-07-22T14:10:01.283Z,9.6
2018-07-22T14:15:01.224Z,9.3
2018-07-22T14:20:01.253Z,9.3
2018-07-22T14:25:01.315Z,9.3
2018-07-22T14:30:01.286Z,9.2
2018-07-22T14:35:01.370Z,9.6
2018-07-22T14:41:01.838Z,9.5
2018-07-22T14:51:01.303Z,9.2
2018-07-22T14:56:01.245Z,9.2
2018-07-22T15:06:01.301Z,9.4
2018-07-22T15:11:01.452Z,9.4
2018-07-22T15:16:01.250Z,9.7
2018-07-22T15:21:01.412Z,9.6
2018-07-22T15:26:01.288Z,9.2
2018-07-22T15:31:01.400Z,9.6
2018-07-22T15:41:01.277Z,9.3
2018-07-22T15:46:01.247Z,9.8
2018-07-22T15:51:01.312Z,9.6
2018-07-22T15:56:01.321Z,8.7
2018-07-22T16:01:01.311Z,8.2
2018-07-22T16:06:01.276Z,7.4
2018-07-22T16:11:01.385Z,6.8
2018-07-22T16:16:01.243Z,6.6
2018-07-22T16:21:01.231Z,7.2
2018-07-22T16:26:01.208Z,7.4
2018-07-22T16:31:01.297Z,7.7
2018-07-22T16:36:01.247Z,7.3
2018-07-22T16:41:01.304Z,7.2
2018-07-22T16:46:01.214Z,6.6
2018-07-22T16:51:01.253Z,6.5
2018-07-22T16:56:01.228Z,6.3
2018-07-22T17:01:01.350Z,6.5
2018-07-22T17:11:01.318Z,7.1
2018-07-22T17:16:01.233Z,7.0
2018-07-22T17:21:01.372Z,7.5
2018-07-22T17:26:01.251Z,7.6
2018-07-22T17:31:01.433Z,8.0
2018-07-22T17:36:01.243Z,7.8
2018-07-22T17:46:01.349Z,8.2
2018-07-22T17:51:01.348Z,8.4
2018-07-22T18:06:01.308Z,8.6
2018-07-22T18:11:01.310Z,8.5
2018-07-22T18:21:06.261Z,8.8
2018-07-22T18:26:01.249Z,9.1
2018-07-22T18:31:01.379Z,9.8
2018-07-22T18:36:01.253Z,10.2
2018-07-22T18:41:01.381Z,10.5
2018-07-22T18:46:01.251Z,10.5
2018-07-22T18:51:01.373Z,10.6
2018-07-22T18:56:01.232Z,10.2
2018-07-22T19:01:01.318Z,10.4
2018-07-22T19:06:01.253Z,10.8
2018-07-22T19:11:01.343Z,11.0
2018-07-22T19:16:01.243Z,11.4
2018-07-22T19:21:01.367Z,11.6
2018-07-22T19:26:01.248Z,11.7
2018-07-22T19:31:01.305Z,10.8
2018-07-22T19:36:01.250Z,10.4
2018-07-22T19:41:01.308Z,9.4
2018-07-22T19:46:01.222Z,9.0
2018-07-22T19:51:01.375Z,8.3
2018-07-22T19:56:01.246Z,8.9
2018-07-22T20:06:01.244Z,10.0
2018-07-22T20:11:01.309Z,10.2
2018-07-22T20:16:01.248Z,10.6
2018-07-22T20:21:01.245Z,11.0
2018-07-22T20:26:01.216Z,11.2
2018-07-22T20:36:01.340Z,11.0
2018-07-22T20:41:01.355Z,10.8
2018-07-22T20:46:01.435Z,10.2
2018-07-22T20:51:01.306Z,10.5
2018-07-22T20:56:01.221Z,10.9
2018-07-22T21:01:01.373Z,11.3
2018-07-22T21:06:06.225Z,11.6
2018-07-22T21:11:01.347Z,11.6
2018-07-22T21:16:01.283Z,11.1
2018-07-22T21:21:01.584Z,10.6
2018-07-22T21:26:01.293Z,10.1
2018-07-22T21:31:01.410Z,9.6
2018-07-22T21:41:01.369Z,9.2
2018-07-22T21:46:01.213Z,8.9
2018-07-22T21:51:01.307Z,8.7
2018-07-22T21:56:01.226Z,8.5
2018-07-22T22:01:01.327Z,8.2
2018-07-22T22:06:01.236Z,8.4
2018-07-22T22:11:01.303Z,8.0
2018-07-22T22:16:01.207Z,8.2
2018-07-22T22:21:01.375Z,8.3
2018-07-22T22:36:01.373Z,8.6
2018-07-22T22:41:01.431Z,8.2
2018-07-22T22:46:01.257Z,8.0
2018-07-22T22:51:01.404Z,7.9
2018-07-22T22:56:01.250Z,7.9
2018-07-22T23:02:01.372Z,7.8
2018-07-22T23:12:01.318Z,8.4
2018-07-22T23:17:01.246Z,8.4
2018-07-22T23:22:01.310Z,9.0
2018-07-22T23:27:01.283Z,9.6
2018-07-22T23:32:01.344Z,10.4
2018-07-22T23:37:01.219Z,10.6
2018-07-22T23:42:01.237Z,11.6
2018-07-22T23:47:01.244Z,11.4
2018-07-22T23:52:01.304Z,11.4
2018-07-22T23:57:01.213Z,10.9
